sensor_id;sensor_type;location;lat;lon;timestamp;pressure;altitude;pressure_sealevel;temperature;humidity
44131;BME280;29792;48.726;9.248;2023-09-08T00:01:21;97149.69;;;19.97;76.71
44131;BME280;29792;48.726;9.248;2023-09-08T00:03:46;97141.47;;;19.94;77.00
44131;BME280;29792;48.726;9.248;2023-09-08T00:06:11;97145.38;;;19.90;77.26
44131;BME280;29792;48.726;9.248;2023-09-08T00:08:37;97142.16;;;19.88;77.83
44131;BME280;29792;48.726;9.248;2023-09-08T00:11:02;97135.53;;;19.85;77.88
44131;BME280;29792;48.726;9.248;2023-09-08T00:13:27;97138.31;;;19.84;77.86
44131;BME280;29792;48.726;9.248;2023-09-08T00:15:52;97139.47;;;19.81;77.83
44131;BME280;29792;48.726;9.248;2023-09-08T00:18:18;97134.44;;;19.79;78.12
44131;BME280;29792;48.726;9.248;2023-09-08T00:20:43;97140.00;;;19.76;77.96
44131;BME280;29792;48.726;9.248;2023-09-08T00:23:08;97137.09;;;19.71;77.96
44131;BME280;29792;48.726;9.248;2023-09-08T00:25:34;97140.69;;;19.70;78.34
44131;BME280;29792;48.726;9.248;2023-09-08T00:27:59;97140.25;;;19.67;78.18
44131;BME280;29792;48.726;9.248;2023-09-08T00:30:25;97138.78;;;19.64;78.11
44131;BME280;29792;48.726;9.248;2023-09-08T00:32:50;97132.34;;;19.60;78.16
44131;BME280;29792;48.726;9.248;2023-09-08T00:35:15;97139.34;;;19.60;78.65
44131;BME280;29792;48.726;9.248;2023-09-08T00:37:40;97134.47;;;19.57;78.11
44131;BME280;29792;48.726;9.248;2023-09-08T00:40:06;97131.06;;;19.56;78.53
44131;BME280;29792;48.726;9.248;2023-09-08T00:42:33;97138.22;;;19.54;78.31
44131;BME280;29792;48.726;9.248;2023-09-08T00:44:58;97128.84;;;19.53;78.38
44131;BME280;29792;48.726;9.248;2023-09-08T00:47:24;97131.44;;;19.53;78.51
44131;BME280;29792;48.726;9.248;2023-09-08T00:49:49;97132.59;;;19.51;78.65
44131;BME280;29792;48.726;9.248;2023-09-08T00:52:16;97132.13;;;19.47;78.44
44131;BME280;29792;48.726;9.248;2023-09-08T00:54:41;97134.25;;;19.43;78.70
44131;BME280;29792;48.726;9.248;2023-09-08T00:57:07;97133.78;;;19.40;79.37
44131;BME280;29792;48.726;9.248;2023-09-08T00:59:35;97135.72;;;19.38;79.73
44131;BME280;29792;48.726;9.248;2023-09-08T01:02:01;97133.50;;;19.35;79.26
44131;BME280;29792;48.726;9.248;2023-09-08T01:04:27;97129.47;;;19.32;79.73
44131;BME280;29792;48.726;9.248;2023-09-08T01:06:54;97129.81;;;19.29;79.41
44131;BME280;29792;48.726;9.248;2023-09-08T01:09:20;97123.50;;;19.24;79.36
44131;BME280;29792;48.726;9.248;2023-09-08T01:11:46;97129.06;;;19.21;79.04
44131;BME280;29792;48.726;9.248;2023-09-08T01:14:12;97132.97;;;19.17;79.28
44131;BME280;29792;48.726;9.248;2023-09-08T01:16:38;97131.09;;;19.11;79.58
44131;BME280;29792;48.726;9.248;2023-09-08T01:19:10;97135.97;;;19.05;79.92
44131;BME280;29792;48.726;9.248;2023-09-08T01:21:58;97135.53;;;19.02;80.16
44131;BME280;29792;48.726;9.248;2023-09-08T01:24:59;97137.47;;;19.00;80.72
44131;BME280;29792;48.726;9.248;2023-09-08T01:27:29;97131.47;;;18.99;80.69
44131;BME280;29792;48.726;9.248;2023-09-08T01:29:56;97135.03;;;18.98;80.78
44131;BME280;29792;48.726;9.248;2023-09-08T01:32:22;97137.84;;;18.97;81.03
44131;BME280;29792;48.726;9.248;2023-09-08T01:34:47;97138.00;;;18.95;81.20
44131;BME280;29792;48.726;9.248;2023-09-08T01:37:12;97133.16;;;18.92;81.34
44131;BME280;29792;48.726;9.248;2023-09-08T01:39:38;97137.69;;;18.90;81.58
44131;BME280;29792;48.726;9.248;2023-09-08T01:42:03;97131.88;;;18.88;80.93
44131;BME280;29792;48.726;9.248;2023-09-08T01:44:28;97127.84;;;18.86;81.07
44131;BME280;29792;48.726;9.248;2023-09-08T01:46:54;97124.97;;;18.81;80.81
44131;BME280;29792;48.726;9.248;2023-09-08T01:49:22;97123.50;;;18.78;81.16
44131;BME280;29792;48.726;9.248;2023-09-08T01:51:48;97129.69;;;18.77;81.59
44131;BME280;29792;48.726;9.248;2023-09-08T01:54:13;97123.84;;;18.75;81.88
44131;BME280;29792;48.726;9.248;2023-09-08T01:56:38;97119.47;;;18.76;81.77
44131;BME280;29792;48.726;9.248;2023-09-08T01:59:03;97114.63;;;18.73;81.37
44131;BME280;29792;48.726;9.248;2023-09-08T02:01:29;97119.97;;;18.71;81.36
44131;BME280;29792;48.726;9.248;2023-09-08T02:03:55;97121.13;;;18.68;81.91
44131;BME280;29792;48.726;9.248;2023-09-08T02:06:20;97118.84;;;18.65;82.21
44131;BME280;29792;48.726;9.248;2023-09-08T02:08:45;97123.22;;;18.65;82.24
44131;BME280;29792;48.726;9.248;2023-09-08T02:11:11;97121.66;;;18.64;82.22
44131;BME280;29792;48.726;9.248;2023-09-08T02:13:36;97122.63;;;18.63;82.12
44131;BME280;29792;48.726;9.248;2023-09-08T02:16:01;97121.97;;;18.61;82.39
44131;BME280;29792;48.726;9.248;2023-09-08T02:18:27;97114.19;;;18.61;82.23
44131;BME280;29792;48.726;9.248;2023-09-08T02:20:53;97112.72;;;18.58;82.30
44131;BME280;29792;48.726;9.248;2023-09-08T02:23:18;97123.28;;;18.57;82.29
44131;BME280;29792;48.726;9.248;2023-09-08T02:25:43;97115.81;;;18.54;82.41
44131;BME280;29792;48.726;9.248;2023-09-08T02:28:09;97121.19;;;18.52;82.79
44131;BME280;29792;48.726;9.248;2023-09-08T02:30:35;97111.78;;;18.51;82.89
44131;BME280;29792;48.726;9.248;2023-09-08T02:33:00;97111.94;;;18.50;82.87
44131;BME280;29792;48.726;9.248;2023-09-08T02:35:28;97111.47;;;18.46;82.82
44131;BME280;29792;48.726;9.248;2023-09-08T02:37:53;97117.00;;;18.43;82.89
44131;BME280;29792;48.726;9.248;2023-09-08T02:40:18;97117.97;;;18.42;83.51
44131;BME280;29792;48.726;9.248;2023-09-08T02:42:45;97115.72;;;18.39;83.05
44131;BME280;29792;48.726;9.248;2023-09-08T02:45:11;97115.91;;;18.38;83.38
44131;BME280;29792;48.726;9.248;2023-09-08T02:47:36;97116.06;;;18.36;83.34
44131;BME280;29792;48.726;9.248;2023-09-08T02:50:01;97111.84;;;18.35;83.38
44131;BME280;29792;48.726;9.248;2023-09-08T02:52:28;97106.22;;;18.32;83.37
44131;BME280;29792;48.726;9.248;2023-09-08T02:54:53;97111.38;;;18.32;83.10
44131;BME280;29792;48.726;9.248;2023-09-08T02:57:18;97111.56;;;18.30;83.17
44131;BME280;29792;48.726;9.248;2023-09-08T02:59:48;97110.91;;;18.28;83.29
44131;BME280;29792;48.726;9.248;2023-09-08T03:02:14;97109.28;;;18.27;83.14
44131;BME280;29792;48.726;9.248;2023-09-08T03:04:39;97115.59;;;18.24;83.61
44131;BME280;29792;48.726;9.248;2023-09-08T03:07:04;97112.22;;;18.24;83.35
44131;BME280;29792;48.726;9.248;2023-09-08T03:09:30;97113.22;;;18.23;83.13
44131;BME280;29792;48.726;9.248;2023-09-08T03:11:55;97110.94;;;18.20;83.45
44131;BME280;29792;48.726;9.248;2023-09-08T03:14:20;97116.13;;;18.20;83.39
44131;BME280;29792;48.726;9.248;2023-09-08T03:16:46;97105.09;;;18.18;83.36
44131;BME280;29792;48.726;9.248;2023-09-08T03:19:11;97110.44;;;18.16;83.48
44131;BME280;29792;48.726;9.248;2023-09-08T03:21:36;97108.06;;;18.15;83.39
44131;BME280;29792;48.726;9.248;2023-09-08T03:24:01;97110.81;;;18.13;83.52
44131;BME280;29792;48.726;9.248;2023-09-08T03:26:27;97107.56;;;18.11;83.53
44131;BME280;29792;48.726;9.248;2023-09-08T03:28:52;97114.53;;;18.11;84.09
44131;BME280;29792;48.726;9.248;2023-09-08T03:31:17;97105.28;;;18.08;83.69
44131;BME280;29792;48.726;9.248;2023-09-08T03:33:43;97103.69;;;18.07;84.14
44131;BME280;29792;48.726;9.248;2023-09-08T03:36:08;97102.25;;;18.05;83.91
44131;BME280;29792;48.726;9.248;2023-09-08T03:38:33;97098.19;;;18.02;84.24
44131;BME280;29792;48.726;9.248;2023-09-08T03:41:01;97106.13;;;18.01;84.40
44131;BME280;29792;48.726;9.248;2023-09-08T03:43:27;97104.53;;;18.00;84.79
44131;BME280;29792;48.726;9.248;2023-09-08T03:45:52;97103.88;;;17.98;84.62
44131;BME280;29792;48.726;9.248;2023-09-08T03:48:17;97103.72;;;17.99;84.89
44131;BME280;29792;48.726;9.248;2023-09-08T03:50:42;97100.31;;;17.99;84.74
44131;BME280;29792;48.726;9.248;2023-09-08T03:53:10;97099.69;;;17.97;84.67
44131;BME280;29792;48.726;9.248;2023-09-08T03:55:36;97099.69;;;17.97;84.36
44131;BME280;29792;48.726;9.248;2023-09-08T03:58:01;97106.00;;;17.94;84.70
44131;BME280;29792;48.726;9.248;2023-09-08T04:00:27;97108.41;;;17.96;84.68
44131;BME280;29792;48.726;9.248;2023-09-08T04:02:52;97114.75;;;17.93;84.56
44131;BME280;29792;48.726;9.248;2023-09-08T04:05:17;97108.94;;;17.91;84.22
44131;BME280;29792;48.726;9.248;2023-09-08T04:07:45;97110.88;;;17.89;84.31
44131;BME280;29792;48.726;9.248;2023-09-08T04:10:10;97123.84;;;17.89;84.37
44131;BME280;29792;48.726;9.248;2023-09-08T04:12:35;97121.56;;;17.86;84.24
44131;BME280;29792;48.726;9.248;2023-09-08T04:15:01;97119.94;;;17.85;84.48
44131;BME280;29792;48.726;9.248;2023-09-08T04:17:26;97126.91;;;17.84;84.44
44131;BME280;29792;48.726;9.248;2023-09-08T04:19:51;97123.69;;;17.82;84.77
44131;BME280;29792;48.726;9.248;2023-09-08T04:22:16;97121.25;;;17.81;85.08
44131;BME280;29792;48.726;9.248;2023-09-08T04:24:42;97118.81;;;17.79;84.92
44131;BME280;29792;48.726;9.248;2023-09-08T04:27:07;97120.63;;;17.79;84.79
44131;BME280;29792;48.726;9.248;2023-09-08T04:29:34;97114.78;;;17.77;85.25
44131;BME280;29792;48.726;9.248;2023-09-08T04:31:59;97116.75;;;17.75;84.96
44131;BME280;29792;48.726;9.248;2023-09-08T04:34:24;97123.53;;;17.76;85.42
44131;BME280;29792;48.726;9.248;2023-09-08T04:36:50;97119.97;;;17.77;85.33
44131;BME280;29792;48.726;9.248;2023-09-08T04:39:15;97128.09;;;17.74;85.52
44131;BME280;29792;48.726;9.248;2023-09-08T04:41:41;97124.19;;;17.70;84.58
44131;BME280;29792;48.726;9.248;2023-09-08T04:44:06;97131.50;;;17.66;84.78
44131;BME280;29792;48.726;9.248;2023-09-08T04:46:31;97134.25;;;17.65;84.99
44131;BME280;29792;48.726;9.248;2023-09-08T04:48:56;97134.25;;;17.65;85.12
44131;BME280;29792;48.726;9.248;2023-09-08T04:51:22;97138.91;;;17.61;85.31
44131;BME280;29792;48.726;9.248;2023-09-08T04:53:47;97139.88;;;17.60;84.95
44131;BME280;29792;48.726;9.248;2023-09-08T04:56:13;97133.25;;;17.58;85.49
44131;BME280;29792;48.726;9.248;2023-09-08T04:58:38;97135.84;;;17.58;85.76
44131;BME280;29792;48.726;9.248;2023-09-08T05:01:04;97136.47;;;17.60;85.83
44131;BME280;29792;48.726;9.248;2023-09-08T05:03:30;97138.28;;;17.59;85.59
44131;BME280;29792;48.726;9.248;2023-09-08T05:05:55;97135.50;;;17.61;86.00
44131;BME280;29792;48.726;9.248;2023-09-08T05:08:21;97126.09;;;17.60;85.88
44131;BME280;29792;48.726;9.248;2023-09-08T05:10:46;97135.50;;;17.61;86.07
44131;BME280;29792;48.726;9.248;2023-09-08T05:13:11;97130.31;;;17.61;86.12
44131;BME280;29792;48.726;9.248;2023-09-08T05:15:36;97127.09;;;17.59;86.21
44131;BME280;29792;48.726;9.248;2023-09-08T05:18:03;97133.88;;;17.60;86.83
44131;BME280;29792;48.726;9.248;2023-09-08T05:20:28;97134.69;;;17.60;87.02
44131;BME280;29792;48.726;9.248;2023-09-08T05:22:53;97136.47;;;17.60;87.88
44131;BME280;29792;48.726;9.248;2023-09-08T05:25:18;97134.06;;;17.58;87.93
44131;BME280;29792;48.726;9.248;2023-09-08T05:27:44;97141.03;;;17.58;87.69
44131;BME280;29792;48.726;9.248;2023-09-08T05:30:11;97138.59;;;17.56;88.13
44131;BME280;29792;48.726;9.248;2023-09-08T05:32:36;97143.13;;;17.54;88.15
44131;BME280;29792;48.726;9.248;2023-09-08T05:35:01;97143.47;;;17.51;88.04
44131;BME280;29792;48.726;9.248;2023-09-08T05:37:27;97148.31;;;17.46;87.53
44131;BME280;29792;48.726;9.248;2023-09-08T05:39:52;97150.88;;;17.38;87.57
44131;BME280;29792;48.726;9.248;2023-09-08T05:42:18;97145.25;;;17.26;87.27
44131;BME280;29792;48.726;9.248;2023-09-08T05:44:43;97153.00;;;17.18;87.36
44131;BME280;29792;48.726;9.248;2023-09-08T05:47:10;97153.00;;;17.10;87.66
44131;BME280;29792;48.726;9.248;2023-09-08T05:49:35;97160.75;;;17.02;87.66
44131;BME280;29792;48.726;9.248;2023-09-08T05:52:00;97160.06;;;16.92;87.95
44131;BME280;29792;48.726;9.248;2023-09-08T05:54:26;97161.81;;;16.83;87.84
44131;BME280;29792;48.726;9.248;2023-09-08T05:56:51;97160.84;;;16.76;88.45
44131;BME280;29792;48.726;9.248;2023-09-08T05:59:16;97157.09;;;16.70;88.70
44131;BME280;29792;48.726;9.248;2023-09-08T06:01:41;97157.25;;;16.61;88.79
44131;BME280;29792;48.726;9.248;2023-09-08T06:04:07;97159.28;;;16.57;89.19
44131;BME280;29792;48.726;9.248;2023-09-08T06:06:32;97160.25;;;16.56;89.65
44131;BME280;29792;48.726;9.248;2023-09-08T06:08:57;97156.69;;;16.57;90.19
44131;BME280;29792;48.726;9.248;2023-09-08T06:11:23;97162.53;;;16.59;90.45
44131;BME280;29792;48.726;9.248;2023-09-08T06:13:48;97160.63;;;16.61;90.80
44131;BME280;29792;48.726;9.248;2023-09-08T06:16:13;97158.06;;;16.61;90.87
44131;BME280;29792;48.726;9.248;2023-09-08T06:18:38;97158.06;;;16.61;90.99
44131;BME280;29792;48.726;9.248;2023-09-08T06:21:07;97158.88;;;16.62;91.58
44131;BME280;29792;48.726;9.248;2023-09-08T06:23:35;97146.91;;;16.61;91.99
44131;BME280;29792;48.726;9.248;2023-09-08T06:26:01;97150.28;;;16.61;92.71
44131;BME280;29792;48.726;9.248;2023-09-08T06:28:27;97153.50;;;16.63;92.94
44131;BME280;29792;48.726;9.248;2023-09-08T06:30:53;97152.41;;;16.66;93.53
44131;BME280;29792;48.726;9.248;2023-09-08T06:33:18;97155.78;;;16.66;93.70
44131;BME280;29792;48.726;9.248;2023-09-08T06:35:45;97156.31;;;16.70;94.13
44131;BME280;29792;48.726;9.248;2023-09-08T06:38:10;97158.56;;;16.73;94.46
44131;BME280;29792;48.726;9.248;2023-09-08T06:40:35;97154.84;;;16.75;94.69
44131;BME280;29792;48.726;9.248;2023-09-08T06:43:01;97159.69;;;16.78;95.28
44131;BME280;29792;48.726;9.248;2023-09-08T06:45:26;97160.19;;;16.82;95.68
44131;BME280;29792;48.726;9.248;2023-09-08T06:47:51;97160.72;;;16.86;96.00
44131;BME280;29792;48.726;9.248;2023-09-08T06:50:20;97155.19;;;16.89;96.14
44131;BME280;29792;48.726;9.248;2023-09-08T06:52:45;97158.28;;;16.92;96.68
44131;BME280;29792;48.726;9.248;2023-09-08T06:55:10;97153.44;;;16.97;97.28
44131;BME280;29792;48.726;9.248;2023-09-08T06:57:36;97160.75;;;17.02;97.43
44131;BME280;29792;48.726;9.248;2023-09-08T07:00:01;97160.09;;;17.08;97.81
44131;BME280;29792;48.726;9.248;2023-09-08T07:02:28;97156.22;;;17.12;98.44
44131;BME280;29792;48.726;9.248;2023-09-08T07:04:53;97156.41;;;17.19;99.11
44131;BME280;29792;48.726;9.248;2023-09-08T07:07:19;97164.19;;;17.27;99.27
44131;BME280;29792;48.726;9.248;2023-09-08T07:09:45;97168.56;;;17.34;99.64
44131;BME280;29792;48.726;9.248;2023-09-08T07:12:10;97169.38;;;17.43;99.96
44131;BME280;29792;48.726;9.248;2023-09-08T07:14:36;97159.16;;;17.49;100.00
44131;BME280;29792;48.726;9.248;2023-09-08T07:17:03;97166.94;;;17.58;100.00
44131;BME280;29792;48.726;9.248;2023-09-08T07:19:28;97160.81;;;17.67;100.00
44131;BME280;29792;48.726;9.248;2023-09-08T07:21:54;97158.22;;;17.75;100.00
44131;BME280;29792;48.726;9.248;2023-09-08T07:24:19;97156.06;;;17.86;100.00
44131;BME280;29792;48.726;9.248;2023-09-08T07:26:44;97163.34;;;17.99;100.00
44131;BME280;29792;48.726;9.248;2023-09-08T07:29:09;97160.56;;;18.09;100.00
44131;BME280;29792;48.726;9.248;2023-09-08T07:31:35;97158.44;;;18.20;100.00
44131;BME280;29792;48.726;9.248;2023-09-08T07:34:00;97159.50;;;18.34;100.00
44131;BME280;29792;48.726;9.248;2023-09-08T07:36:26;97153.16;;;18.45;100.00
44131;BME280;29792;48.726;9.248;2023-09-08T07:38:51;97156.22;;;18.56;100.00
44131;BME280;29792;48.726;9.248;2023-09-08T07:41:16;97162.47;;;18.70;100.00
44131;BME280;29792;48.726;9.248;2023-09-08T07:43:41;97160.50;;;18.80;100.00
44131;BME280;29792;48.726;9.248;2023-09-08T07:46:09;97161.53;;;18.94;100.00
44131;BME280;29792;48.726;9.248;2023-09-08T07:48:35;97154.97;;;19.06;100.00
44131;BME280;29792;48.726;9.248;2023-09-08T07:51:00;97161.22;;;19.20;100.00
44131;BME280;29792;48.726;9.248;2023-09-08T07:53:29;97160.28;;;19.35;100.00
44131;BME280;29792;48.726;9.248;2023-09-08T07:55:54;97162.00;;;19.51;100.00
44131;BME280;29792;48.726;9.248;2023-09-08T07:58:19;97162.66;;;19.68;100.00
44131;BME280;29792;48.726;9.248;2023-09-08T08:00:44;97155.88;;;19.81;100.00
44131;BME280;29792;48.726;9.248;2023-09-08T08:03:10;97157.50;;;19.97;99.84
44131;BME280;29792;48.726;9.248;2023-09-08T08:05:35;97155.09;;;20.10;99.39
44131;BME280;29792;48.726;9.248;2023-09-08T08:08:00;97166.13;;;20.27;98.76
44131;BME280;29792;48.726;9.248;2023-09-08T08:10:26;97163.75;;;20.40;98.30
44131;BME280;29792;48.726;9.248;2023-09-08T08:12:51;97160.94;;;20.56;98.01
44131;BME280;29792;48.726;9.248;2023-09-08T08:15:19;97159.13;;;20.72;97.57
44131;BME280;29792;48.726;9.248;2023-09-08T08:17:45;97166.09;;;20.86;97.32
44131;BME280;29792;48.726;9.248;2023-09-08T08:20:11;97159.25;;;21.00;96.30
44131;BME280;29792;48.726;9.248;2023-09-08T08:22:42;97164.41;;;21.14;95.66
44131;BME280;29792;48.726;9.248;2023-09-08T08:25:07;97163.75;;;21.27;95.28
44131;BME280;29792;48.726;9.248;2023-09-08T08:27:33;97162.69;;;21.43;95.12
44131;BME280;29792;48.726;9.248;2023-09-08T08:29:58;97171.63;;;21.55;94.05
44131;BME280;29792;48.726;9.248;2023-09-08T08:32:26;97170.72;;;21.69;92.78
44131;BME280;29792;48.726;9.248;2023-09-08T08:34:51;97159.97;;;21.79;91.86
44131;BME280;29792;48.726;9.248;2023-09-08T08:37:16;97158.25;;;21.92;91.33
44131;BME280;29792;48.726;9.248;2023-09-08T08:39:42;97157.59;;;22.05;91.11
44131;BME280;29792;48.726;9.248;2023-09-08T08:42:08;97152.81;;;22.15;89.77
44131;BME280;29792;48.726;9.248;2023-09-08T08:44:34;97148.50;;;22.29;88.27
44131;BME280;29792;48.726;9.248;2023-09-08T08:47:01;97149.13;;;22.37;87.28
44131;BME280;29792;48.726;9.248;2023-09-08T08:49:27;97151.00;;;22.50;87.94
44131;BME280;29792;48.726;9.248;2023-09-08T08:51:54;97148.03;;;22.66;87.65
44131;BME280;29792;48.726;9.248;2023-09-08T08:54:20;97150.34;;;22.82;87.52
44131;BME280;29792;48.726;9.248;2023-09-08T08:56:45;97149.19;;;22.98;87.09
44131;BME280;29792;48.726;9.248;2023-09-08T08:59:12;97150.00;;;23.12;86.04
44131;BME280;29792;48.726;9.248;2023-09-08T09:01:38;97148.03;;;23.27;85.91
44131;BME280;29792;48.726;9.248;2023-09-08T09:04:06;97148.84;;;23.41;84.88
44131;BME280;29792;48.726;9.248;2023-09-08T09:06:32;97152.91;;;23.56;84.36
44131;BME280;29792;48.726;9.248;2023-09-08T09:08:59;97151.72;;;23.66;82.66
44131;BME280;29792;48.726;9.248;2023-09-08T09:11:24;97152.09;;;23.76;82.26
44131;BME280;29792;48.726;9.248;2023-09-08T09:13:50;97148.47;;;23.90;82.06
44131;BME280;29792;48.726;9.248;2023-09-08T09:16:15;97139.78;;;24.03;81.56
44131;BME280;29792;48.726;9.248;2023-09-08T09:18:58;97147.41;;;24.17;81.33
44131;BME280;29792;48.726;9.248;2023-09-08T09:21:25;97141.78;;;24.27;79.02
44131;BME280;29792;48.726;9.248;2023-09-08T09:24:05;97146.19;;;24.40;79.83
44131;BME280;29792;48.726;9.248;2023-09-08T09:26:31;97139.47;;;24.50;78.86
44131;BME280;29792;48.726;9.248;2023-09-08T09:28:56;97148.31;;;24.62;79.38
44131;BME280;29792;48.726;9.248;2023-09-08T09:31:24;97153.09;;;24.79;79.99
44131;BME280;29792;48.726;9.248;2023-09-08T09:34:03;97156.66;;;24.91;78.49
44131;BME280;29792;48.726;9.248;2023-09-08T09:36:29;97149.56;;;25.04;78.73
44131;BME280;29792;48.726;9.248;2023-09-08T09:38:58;97148.47;;;25.19;77.29
44131;BME280;29792;48.726;9.248;2023-09-08T09:41:25;97152.22;;;25.29;77.05
44131;BME280;29792;48.726;9.248;2023-09-08T09:43:50;97153.34;;;25.40;76.28
44131;BME280;29792;48.726;9.248;2023-09-08T09:46:15;97154.09;;;25.47;74.50
44131;BME280;29792;48.726;9.248;2023-09-08T09:48:41;97155.28;;;25.51;72.92
44131;BME280;29792;48.726;9.248;2023-09-08T09:51:16;97152.22;;;25.61;75.46
44131;BME280;29792;48.726;9.248;2023-09-08T09:53:44;97152.31;;;25.72;75.10
44131;BME280;29792;48.726;9.248;2023-09-08T09:56:11;97156.88;;;25.83;73.48
44131;BME280;29792;48.726;9.248;2023-09-08T09:58:37;97155.81;;;25.91;72.22
44131;BME280;29792;48.726;9.248;2023-09-08T10:01:03;97151.28;;;25.98;71.85
44131;BME280;29792;48.726;9.248;2023-09-08T10:03:29;97145.53;;;26.08;72.01
44131;BME280;29792;48.726;9.248;2023-09-08T10:05:56;97142.41;;;26.17;71.86
44131;BME280;29792;48.726;9.248;2023-09-08T10:08:22;97140.91;;;26.28;71.53
44131;BME280;29792;48.726;9.248;2023-09-08T10:10:47;97134.34;;;26.37;71.74
44131;BME280;29792;48.726;9.248;2023-09-08T10:13:14;97136.03;;;26.50;71.14
44131;BME280;29792;48.726;9.248;2023-09-08T10:15:44;97140.75;;;26.59;69.57
44131;BME280;29792;48.726;9.248;2023-09-08T10:18:11;97138.06;;;26.66;68.67
44131;BME280;29792;48.726;9.248;2023-09-08T10:20:40;97130.06;;;26.73;68.26
44131;BME280;29792;48.726;9.248;2023-09-08T10:23:09;97131.00;;;26.78;68.28
44131;BME280;29792;48.726;9.248;2023-09-08T10:25:42;97125.66;;;26.85;66.54
44131;BME280;29792;48.726;9.248;2023-09-08T10:28:08;97122.19;;;26.91;67.03
44131;BME280;29792;48.726;9.248;2023-09-08T10:30:34;97117.03;;;26.96;67.28
44131;BME280;29792;48.726;9.248;2023-09-08T10:33:01;97121.19;;;27.04;67.65
44131;BME280;29792;48.726;9.248;2023-09-08T10:35:28;97120.88;;;27.12;66.56
44131;BME280;29792;48.726;9.248;2023-09-08T10:38:22;97125.59;;;27.21;66.49
44131;BME280;29792;48.726;9.248;2023-09-08T10:40:49;97123.44;;;27.30;65.72
44131;BME280;29792;48.726;9.248;2023-09-08T10:43:14;97126.53;;;27.39;65.36
44131;BME280;29792;48.726;9.248;2023-09-08T10:45:40;97122.78;;;27.46;64.43
44131;BME280;29792;48.726;9.248;2023-09-08T10:48:07;97121.19;;;27.57;65.22
44131;BME280;29792;48.726;9.248;2023-09-08T10:50:34;97119.28;;;27.64;63.17
44131;BME280;29792;48.726;9.248;2023-09-08T10:55:49;97116.88;;;27.74;64.29
44131;BME280;29792;48.726;9.248;2023-09-08T10:58:33;97116.53;;;27.82;64.04
44131;BME280;29792;48.726;9.248;2023-09-08T11:00:59;97125.09;;;27.89;63.19
44131;BME280;29792;48.726;9.248;2023-09-08T11:06:07;97116.75;;;27.92;63.05
44131;BME280;29792;48.726;9.248;2023-09-08T11:08:33;97107.91;;;27.98;64.70
44131;BME280;29792;48.726;9.248;2023-09-08T11:11:00;97113.88;;;28.05;64.64
44131;BME280;29792;48.726;9.248;2023-09-08T11:13:26;97112.97;;;28.12;63.02
44131;BME280;29792;48.726;9.248;2023-09-08T11:15:53;97112.47;;;28.15;62.90
44131;BME280;29792;48.726;9.248;2023-09-08T11:18:29;97118.72;;;28.20;63.72
44131;BME280;29792;48.726;9.248;2023-09-08T11:20:55;97118.47;;;28.22;62.22
44131;BME280;29792;48.726;9.248;2023-09-08T11:23:20;97115.81;;;28.22;62.75
44131;BME280;29792;48.726;9.248;2023-09-08T11:25:46;97113.75;;;28.24;61.88
44131;BME280;29792;48.726;9.248;2023-09-08T11:28:12;97107.81;;;28.28;62.11
44131;BME280;29792;48.726;9.248;2023-09-08T11:30:39;97119.25;;;28.34;61.90
44131;BME280;29792;48.726;9.248;2023-09-08T11:33:06;97120.38;;;28.38;61.60
44131;BME280;29792;48.726;9.248;2023-09-08T11:35:38;97110.97;;;28.42;61.60
44131;BME280;29792;48.726;9.248;2023-09-08T11:38:03;97107.31;;;28.43;61.31
44131;BME280;29792;48.726;9.248;2023-09-08T11:40:30;97109.38;;;28.41;60.23
44131;BME280;29792;48.726;9.248;2023-09-08T11:42:55;97114.66;;;28.41;59.94
44131;BME280;29792;48.726;9.248;2023-09-08T11:45:21;97109.16;;;28.42;59.62
44131;BME280;29792;48.726;9.248;2023-09-08T11:47:47;97111.06;;;28.47;60.26
44131;BME280;29792;48.726;9.248;2023-09-08T11:50:14;97104.31;;;28.51;60.34
44131;BME280;29792;48.726;9.248;2023-09-08T11:52:47;97114.28;;;28.49;59.51
44131;BME280;29792;48.726;9.248;2023-09-08T11:55:14;97110.03;;;28.48;59.89
44131;BME280;29792;48.726;9.248;2023-09-08T11:57:44;97106.13;;;28.51;59.49
44131;BME280;29792;48.726;9.248;2023-09-08T12:00:11;97110.47;;;28.57;58.36
44131;BME280;29792;48.726;9.248;2023-09-08T12:02:41;97109.78;;;28.61;59.98
44131;BME280;29792;48.726;9.248;2023-09-08T12:05:11;97110.09;;;28.65;58.51
44131;BME280;29792;48.726;9.248;2023-09-08T12:07:37;97111.00;;;28.70;58.75
44131;BME280;29792;48.726;9.248;2023-09-08T12:10:10;97099.97;;;28.73;58.04
44131;BME280;29792;48.726;9.248;2023-09-08T12:12:42;97106.75;;;28.81;57.49
44131;BME280;29792;48.726;9.248;2023-09-08T12:15:08;97105.72;;;28.82;57.06
44131;BME280;29792;48.726;9.248;2023-09-08T12:17:33;97104.22;;;28.86;56.48
44131;BME280;29792;48.726;9.248;2023-09-08T12:19:58;97102.91;;;28.89;56.35
44131;BME280;29792;48.726;9.248;2023-09-08T12:22:23;97100.63;;;28.92;55.71
44131;BME280;29792;48.726;9.248;2023-09-08T12:27:22;97092.91;;;29.02;56.08
44131;BME280;29792;48.726;9.248;2023-09-08T12:30:01;97096.41;;;29.08;56.30
44131;BME280;29792;48.726;9.248;2023-09-08T12:32:29;97097.78;;;29.10;55.69
44131;BME280;29792;48.726;9.248;2023-09-08T12:34:55;97091.69;;;29.10;53.95
44131;BME280;29792;48.726;9.248;2023-09-08T12:37:24;97093.78;;;29.08;54.67
44131;BME280;29792;48.726;9.248;2023-09-08T12:39:49;97091.13;;;29.08;54.54
44131;BME280;29792;48.726;9.248;2023-09-08T12:42:15;97095.59;;;29.07;52.25
44131;BME280;29792;48.726;9.248;2023-09-08T12:44:40;97092.75;;;29.09;52.41
44131;BME280;29792;48.726;9.248;2023-09-08T12:47:10;97089.06;;;29.10;52.29
44131;BME280;29792;48.726;9.248;2023-09-08T12:49:36;97084.59;;;29.10;50.97
44131;BME280;29792;48.726;9.248;2023-09-08T12:52:01;97085.34;;;29.11;50.24
44131;BME280;29792;48.726;9.248;2023-09-08T12:54:26;97076.75;;;29.15;51.58
44131;BME280;29792;48.726;9.248;2023-09-08T12:56:52;97074.19;;;29.20;53.03
44131;BME280;29792;48.726;9.248;2023-09-08T12:59:17;97074.28;;;29.26;53.06
44131;BME280;29792;48.726;9.248;2023-09-08T13:01:42;97069.53;;;29.28;53.16
44131;BME280;29792;48.726;9.248;2023-09-08T13:04:07;97072.28;;;29.33;53.01